Terminal Aerodrome Forecast
Issued by NWS Twin Cities, MN

Home | Current Version | Previous Version | Graphics & Text | Print | Product List | Glossary On
Versions: 1 2 3 4 5 6 7 8 9 10 11 12 13 14 15 16 17
000
FTUS43 KMPX 070500
TAFEAU
TAF
KEAU 070520Z 0706/0806 30004KT P6SM SKC
     FM071200 27005KT P6SM BKN150
     FM071600 27008KT P6SM SCT040 BKN080 PROB30 0722/0803 3SM -TSRA
      OVC025CB=

USA.gov is the U.S. government's official web portal to all federal, state and local government web resources and services.